Airfield :







YOU CAN JOIN US ON...

 
LOGIN :

Register | Disclaimer

   EN    FR    IT 

 









Legend :    VFR   Marginal VFR   IFR   Intensive IFR   Very Intensive IFR
Visi :
Ceiling :
>= 8 km
>= 3000ft
5 to 8 km
1000 to 3000 ft
1500m to 5 km
500 to 1000 ft
800 to 1500m
200 to 500 ft
< 800m
< 200 ft
Symbols :   Thunderstorms  Fog  Heavy snow  Heavy precipitations  Wind > 20 kt






- Airport Elevation : 232 ft
- IATA code : YQM


CYQM - Greater Moncton International

CURRENT METAR :
  • 292000Z 34012G18KT 10SM -SHSN DRSN BKN030 M10/M17 A2986 RMK CU7 VIS LWR NE SLP118

EXPIRED METARs :
  • 291900Z 34015G20KT 15SM DRSN BKN030 M10/M16 A2983 RMK CU7 SH N SLP108
  • 291846Z 34014G19KT 290V350 15SM BKN030 M09/M17 A2983 RMK CU7 SLP107
  • 291800Z 34016KT 15SM -SHSN DRSN BKN025 BKN070 M09/M14 A2982 RMK CU6AC1 SLP103

TAF TAF CYQM
Valid from the 29 at 18:00 until the 30 at 18:00 UTC


291739Z 2918/3018 34015G25KT P6SM -SN BKN025
TEMPO 2918/2924 5SM -SHSN OVC020
BECMG 2920/2922 34012G22KT
FM300000 35012KT P6SM SCT030
TEMPO 3000/3010 P6SM -SN BKN030
BECMG 3000/3002 33015G25KT
FM301000 31012KT P6SM SCT020 RMK NXT FCST BY 300000Z



MET'MAP, your aeronautical weather chart ! - Copyright ORBIFLY December 2007 - Disclaimer

ORBIFLY MET'MAP TEAM :

Programming & Development : Alexandra Zaïnal
Concept & original design : Baudouin d'Aumeries
Assistance for programming : Marc-Olivier Méhu
Technical & hardware support : Manuel Goepfert

Contact : metmap@orbifly.com




SOURCES & CREDITS :

   NOAA